Time;durP1;ratioP1;P1;durP2;ratioP2;P2;SDS_P1;SDS_P2;PMS_P1;PMS_P2;Temp;Humidity;BMP_temperature;BMP_pressure;BME280_temperature;BME280_humidity;BME280_pressure;Samples;Min_cycle;Max_cycle;Signal;HPM_P1;HPM_P2
2022/04/17 00:01:43;;;;;;;;;;;;;;;10.10;59.75;100679.44;4339514;33;20588;-96
2022/04/17 00:04:10;;;;;;;;;;;;;;;10.02;59.75;100670.91;4324839;33;20011;-96
2022/04/17 00:06:36;;;;;;;;;;;;;;;10.07;59.74;100679.50;4335454;33;20011;-96
2022/04/17 00:09:01;;;;;;;;;;;;;;;10.07;59.74;100669.09;4320727;33;20004;-96
2022/04/17 00:11:36;;;;;;;;;;;;;;;9.89;59.74;100665.88;4321305;33;20295;-96
2022/04/17 00:14:01;;;;;;;;;;;;;;;9.89;59.74;100668.50;4330226;33;20039;-96
2022/04/17 00:16:27;;;;;;;;;;;;;;;9.92;59.74;100661.50;4324283;33;19988;-96
2022/04/17 00:18:52;;;;;;;;;;;;;;;9.78;59.73;100664.31;4321628;33;19984;-96
2022/04/17 00:21:17;;;;;;;;;;;;;;;9.76;59.73;100671.28;4334132;33;19996;-95
2022/04/17 00:23:44;;;;;;;;;;;;;;;9.69;59.72;100671.37;4320794;33;20101;-96
2022/04/17 00:26:10;;;;;;;;;;;;;;;9.57;59.72;100677.59;4321357;33;20682;-94
2022/04/17 00:28:43;;;;;;;;;;;;;;;9.30;59.71;100671.03;4321000;33;20052;-95
2022/04/17 00:31:08;;;;;;;;;;;;;;;9.14;59.70;100670.31;4333407;33;19999;-94
2022/04/17 00:33:36;;;;;;;;;;;;;;;8.93;59.68;100674.00;4339656;33;19992;-96
2022/04/17 00:36:02;;;;;;;;;;;;;;;8.80;59.67;100668.97;4329989;33;19992;-96
2022/04/17 00:38:35;;;;;;;;;;;;;;;9.04;59.69;100657.47;4326628;33;20017;-96
2022/04/17 00:41:11;;;;;;;;;;;;;;;9.04;59.69;100655.75;4330640;33;19992;-96
2022/04/17 00:43:59;;;;;;;;;;;;;;;9.20;59.70;100659.84;4339419;33;20051;-96
2022/04/17 00:46:27;;;;;;;;;;;;;;;9.11;59.68;100667.78;4326497;33;19993;-96
2022/04/17 00:48:53;;;;;;;;;;;;;;;8.88;59.68;100682.75;4328122;33;19976;-95
2022/04/17 00:51:39;;;;;;;;;;;;;;;8.89;59.69;100655.91;4328381;33;20000;-96
2022/04/17 00:54:13;;;;;;;;;;;;;;;8.98;59.69;100658.38;4339687;33;20043;-94
2022/04/17 00:56:54;;;;;;;;;;;;;;;8.92;59.68;100659.31;4328976;33;19956;-96
2022/04/17 00:59:20;;;;;;;;;;;;;;;9.00;59.69;100653.19;4328067;33;20048;-96
2022/04/17 01:01:55;;;;;;;;;;;;;;;8.78;59.68;100658.63;4338840;33;20029;-96
2022/04/17 01:04:20;;;;;;;;;;;;;;;8.85;59.68;100641.22;4327843;33;19992;-94
2022/04/17 01:06:46;;;;;;;;;;;;;;;8.81;59.67;100655.13;4326745;33;20325;-96
2022/04/17 01:09:32;;;;;;;;;;;;;;;8.76;59.68;100675.94;4324927;33;20033;-96
2022/04/17 01:12:17;;;;;;;;;;;;;;;8.75;59.68;100644.78;4330741;33;19965;-96
2022/04/17 01:14:45;;;;;;;;;;;;;;;8.71;59.67;100656.06;4329913;33;19974;-96
2022/04/17 01:17:20;;;;;;;;;;;;;;;8.66;59.68;100661.31;4330732;33;20049;-96
2022/04/17 01:19:57;;;;;;;;;;;;;;;8.70;59.67;100643.97;4333334;33;19949;-96
2022/04/17 01:22:34;;;;;;;;;;;;;;;8.90;59.69;100644.63;4347396;32;19996;-96
2022/04/17 01:28:22;;;;;;;;;;;;;;;9.15;59.70;100643.47;4405322;27;19979;-95
2022/04/17 01:30:51;;;;;;;;;;;;;;;8.78;59.68;100650.84;4347390;33;19955;-96
2022/04/17 01:33:19;;;;;;;;;;;;;;;8.85;59.69;100649.88;4346075;33;20607;-96
2022/04/17 01:35:45;;;;;;;;;;;;;;;8.87;59.68;100644.66;4346791;33;19972;-96
2022/04/17 01:38:10;;;;;;;;;;;;;;;9.11;59.69;100639.19;4330050;33;20032;-96
2022/04/17 01:40:35;;;;;;;;;;;;;;;9.25;59.70;100633.84;4330895;33;20073;-96
2022/04/17 01:43:01;;;;;;;;;;;;;;;9.32;59.71;100640.69;4324629;33;20087;-95
2022/04/17 01:45:26;;;;;;;;;;;;;;;9.47;59.72;100640.50;4335320;33;20283;-95
2022/04/17 01:47:51;;;;;;;;;;;;;;;9.51;59.72;100638.72;4323009;33;20015;-93
2022/04/17 01:50:16;;;;;;;;;;;;;;;9.54;59.72;100631.72;4322977;33;19994;-95
2022/04/17 01:52:42;;;;;;;;;;;;;;;9.36;59.72;100638.91;4323173;33;19991;-95
2022/04/17 01:55:07;;;;;;;;;;;;;;;9.25;59.70;100633.00;4335380;33;19995;-94
2022/04/17 01:57:32;;;;;;;;;;;;;;;9.51;59.72;100633.50;4335577;33;20011;-95
2022/04/17 01:59:58;;;;;;;;;;;;;;;9.60;59.73;100620.37;4323529;33;19988;-94
2022/04/17 02:02:23;;;;;;;;;;;;;;;9.61;59.72;100624.69;4324387;33;19991;-96
2022/04/17 02:04:48;;;;;;;;;;;;;;;9.44;59.71;100629.25;4328453;33;20170;-96
2022/04/17 02:07:14;;;;;;;;;;;;;;;9.35;59.71;100629.38;4329701;33;19991;-94
2022/04/17 02:09:39;;;;;;;;;;;;;;;9.37;59.71;100623.28;4326916;33;20001;-95
2022/04/17 02:12:05;;;;;;;;;;;;;;;9.15;59.70;100617.50;4325384;33;24782;-96
2022/04/17 02:14:36;;;;;;;;;;;;;;;9.27;59.71;100615.66;4327927;33;20050;-96
2022/04/17 02:17:02;;;;;;;;;;;;;;;9.38;59.71;100626.75;4353829;33;19990;-95
2022/04/17 02:19:27;;;;;;;;;;;;;;;9.17;59.71;100610.53;4325977;33;19998;-94
2022/04/17 02:21:56;;;;;;;;;;;;;;;9.02;59.69;100607.31;4325634;33;20377;-94
2022/04/17 02:24:21;;;;;;;;;;;;;;;9.23;59.71;100612.22;4325638;33;20013;-93
2022/04/17 02:26:46;;;;;;;;;;;;;;;9.28;59.71;100614.75;4337409;33;19984;-94
2022/04/17 02:29:12;;;;;;;;;;;;;;;9.11;59.69;100613.22;4325537;33;19983;-96
2022/04/17 02:31:37;;;;;;;;;;;;;;;9.09;59.69;100611.53;4340483;33;20010;-96
2022/04/17 02:34:09;;;;;;;;;;;;;;;9.03;59.69;100599.47;4328461;33;20031;-92
2022/04/17 02:36:34;;;;;;;;;;;;;;;9.14;59.70;100602.78;4337936;33;19959;-93
2022/04/17 02:38:59;;;;;;;;;;;;;;;9.28;59.71;100594.84;4328087;33;19995;-93
2022/04/17 02:41:24;;;;;;;;;;;;;;;9.29;59.71;100608.69;4330968;33;19983;-93
2022/04/17 02:43:50;;;;;;;;;;;;;;;9.43;59.72;100594.62;4339193;33;20003;-93
2022/04/17 02:47:42;;;;;;;;;;;;;;;9.42;59.72;100594.62;4326228;33;20034;-95
2022/04/17 02:49:01;;;;;;;;;;;;;;;9.27;59.71;100592.25;4350697;33;19956;-93
2022/04/17 02:51:26;;;;;;;;;;;;;;;9.08;59.70;100592.50;4324705;33;20231;-94
2022/04/17 02:53:51;;;;;;;;;;;;;;;8.67;59.68;100582.59;4324991;33;19983;-93
2022/04/17 02:56:19;;;;;;;;;;;;;;;8.47;59.66;100585.38;4325023;33;19979;-95
2022/04/17 02:58:50;;;;;;;;;;;;;;;8.05;59.64;100604.78;4337797;33;19995;-96
2022/04/17 03:06:46;;;;;;;;;;;;;;;8.02;59.64;100608.22;4344261;33;19966;-95
2022/04/17 03:09:12;;;;;;;;;;;;;;;7.67;59.61;100599.84;4354871;33;20564;-96
2022/04/17 03:11:37;;;;;;;;;;;;;;;7.75;59.62;100604.97;4329681;33;19980;-96
2022/04/17 03:14:03;;;;;;;;;;;;;;;7.79;59.63;100617.91;4333460;33;20050;-96
2022/04/17 03:16:32;;;;;;;;;;;;;;;7.71;59.62;100606.75;4334709;33;20022;-96
2022/04/17 03:18:59;;;;;;;;;;;;;;;7.68;59.61;100615.41;4347552;33;19975;-95
2022/04/17 03:21:30;;;;;;;;;;;;;;;7.55;59.61;100612.88;4333899;33;20006;-96
2022/04/17 03:23:55;;;;;;;;;;;;;;;7.59;59.61;100617.19;4349155;33;20681;-95
2022/04/17 03:26:20;;;;;;;;;;;;;;;7.54;59.61;100616.34;4313523;33;20007;-96
2022/04/17 03:28:46;;;;;;;;;;;;;;;7.50;59.61;100617.22;4300380;33;19996;-93
2022/04/17 03:31:11;;;;;;;;;;;;;;;7.41;59.61;100619.87;4293828;33;20023;-94
2022/04/17 03:33:37;;;;;;;;;;;;;;;7.49;59.61;100631.91;4294630;33;20015;-93
2022/04/17 03:36:02;;;;;;;;;;;;;;;7.33;59.60;100625.97;4294801;33;20083;-95
2022/04/17 03:38:27;;;;;;;;;;;;;;;7.31;59.60;100627.69;4319853;33;20040;-93
2022/04/17 03:40:52;;;;;;;;;;;;;;;7.22;59.58;100632.06;4294413;33;20165;-94
2022/04/17 03:43:18;;;;;;;;;;;;;;;7.42;59.61;100629.38;4295020;33;20015;-94
2022/04/17 03:45:47;;;;;;;;;;;;;;;7.36;59.60;100625.94;4306700;33;19992;-92
2022/04/17 03:48:13;;;;;;;;;;;;;;;7.35;59.60;100628.56;4296011;33;20670;-96
2022/04/17 03:50:38;;;;;;;;;;;;;;;7.48;59.61;100634.50;4298017;33;20012;-95
2022/04/17 03:53:03;;;;;;;;;;;;;;;7.46;59.61;100637.13;4294932;33;20107;-96
2022/04/17 03:55:28;;;;;;;;;;;;;;;7.36;59.61;100638.91;4297765;33;20008;-95
2022/04/17 03:57:54;;;;;;;;;;;;;;;7.28;59.60;100638.06;4319130;33;19994;-96
2022/04/17 04:00:20;;;;;;;;;;;;;;;7.32;59.61;100636.31;4326961;33;20030;-96
2022/04/17 04:02:47;;;;;;;;;;;;;;;7.36;59.60;100631.13;4326247;33;20010;-95
2022/04/17 04:05:21;;;;;;;;;;;;;;;7.35;59.60;100642.38;4337402;33;19980;-96
2022/04/17 04:07:49;;;;;;;;;;;;;;;7.47;59.61;100649.19;4347880;33;19964;-96
2022/04/17 04:10:14;;;;;;;;;;;;;;;7.41;59.61;100649.22;4338770;33;19960;-94
2022/04/17 04:12:39;;;;;;;;;;;;;;;7.47;59.61;100650.94;4326616;33;20365;-96
2022/04/17 04:15:05;;;;;;;;;;;;;;;7.51;59.61;100645.72;4326249;33;19975;-96
2022/04/17 04:17:32;;;;;;;;;;;;;;;7.54;59.62;100648.28;4346510;33;19990;-96
2022/04/17 04:19:57;;;;;;;;;;;;;;;7.69;59.63;100647.34;4330213;33;20005;-96
2022/04/17 04:22:22;;;;;;;;;;;;;;;7.66;59.62;100645.66;4336729;33;20030;-96
2022/04/17 04:24:48;;;;;;;;;;;;;;;7.66;59.62;100640.47;4342157;33;19951;-96
2022/04/17 04:29:57;;;;;;;;;;;;;;;7.61;59.62;100644.81;4351922;32;20011;-94
2022/04/17 04:32:23;;;;;;;;;;;;;;;7.61;59.62;100652.59;4339598;33;19988;-93
2022/04/17 04:34:50;;;;;;;;;;;;;;;7.64;59.62;100655.16;4336551;33;19979;-94
2022/04/17 04:37:30;;;;;;;;;;;;;;;7.72;59.62;100649.06;4341375;33;20338;-96
2022/04/17 04:39:59;;;;;;;;;;;;;;;7.84;59.63;100661.97;4343822;33;19987;-96
2022/04/17 04:42:25;;;;;;;;;;;;;;;7.89;59.63;100650.69;4349607;33;20032;-95
2022/04/17 04:46:06;;;;;;;;;;;;;;;7.82;59.63;100651.59;4337375;33;20050;-95
2022/04/17 04:47:38;;;;;;;;;;;;;;;7.90;59.63;100657.59;4354899;33;19956;-96
2022/04/17 04:50:27;;;;;;;;;;;;;;;8.03;59.64;100650.56;4360592;32;20052;-96
2022/04/17 04:53:15;;;;;;;;;;;;;;;8.09;59.64;100653.13;4330199;33;19984;-96
2022/04/17 04:55:40;;;;;;;;;;;;;;;8.19;59.65;100651.31;4323504;33;19963;-94
2022/04/17 04:58:06;;;;;;;;;;;;;;;8.17;59.65;100653.06;4308965;33;20008;-95
2022/04/17 05:00:31;;;;;;;;;;;;;;;8.17;59.65;100651.34;4307693;33;20020;-91
2022/04/17 05:02:56;;;;;;;;;;;;;;;8.28;59.65;100644.34;4305231;33;20067;-93
2022/04/17 05:05:21;;;;;;;;;;;;;;;8.27;59.66;100650.37;4305340;33;20036;-93
2022/04/17 05:07:47;;;;;;;;;;;;;;;8.23;59.65;100658.19;4306336;33;20000;-92
2022/04/17 05:10:12;;;;;;;;;;;;;;;8.24;59.65;100646.94;4305432;33;20019;-92
2022/04/17 05:12:37;;;;;;;;;;;;;;;8.29;59.66;100653.00;4306446;33;20058;-92
2022/04/17 05:15:03;;;;;;;;;;;;;;;8.48;59.66;100648.50;4310785;33;20408;-90
2022/04/17 05:17:28;;;;;;;;;;;;;;;8.51;59.67;100649.34;4310785;33;19996;-94
2022/04/17 05:19:53;;;;;;;;;;;;;;;8.54;59.66;100648.47;4307582;33;20000;-94
2022/04/17 05:22:20;;;;;;;;;;;;;;;8.71;59.68;100649.16;4306630;33;20345;-95
2022/04/17 05:24:45;;;;;;;;;;;;;;;8.78;59.68;100650.84;4335108;33;19990;-94
2022/04/17 05:27:11;;;;;;;;;;;;;;;8.84;59.69;100645.56;4338762;33;20007;-95
2022/04/17 05:29:36;;;;;;;;;;;;;;;8.82;59.69;100646.47;4339502;33;19990;-95
2022/04/17 05:32:02;;;;;;;;;;;;;;;8.84;59.69;100652.50;4339389;33;20013;-95
2022/04/17 05:34:27;;;;;;;;;;;;;;;8.83;59.68;100649.03;4338866;33;20011;-94
2022/04/17 05:36:52;;;;;;;;;;;;;;;8.92;59.69;100648.94;4339049;33;19971;-95
2022/04/17 05:39:17;;;;;;;;;;;;;;;8.88;59.69;100647.25;4394050;27;20029;-96
2022/04/17 05:41:43;;;;;;;;;;;;;;;8.83;59.69;100653.38;4342502;33;20411;-96
2022/04/17 05:44:08;;;;;;;;;;;;;;;8.95;59.69;100644.56;4342231;33;19994;-95
2022/04/17 05:46:37;;;;;;;;;;;;;;;9.04;59.69;100644.50;4332119;33;20045;-95
2022/04/17 05:49:04;;;;;;;;;;;;;;;9.07;59.69;100650.50;4327987;33;19963;-96
2022/04/17 05:51:29;;;;;;;;;;;;;;;9.21;59.70;100652.94;4341255;33;20049;-95
2022/04/17 05:53:59;;;;;;;;;;;;;;;9.29;59.71;100645.91;4327982;33;19976;-96
2022/04/17 05:56:25;;;;;;;;;;;;;;;9.54;59.73;100651.66;4346974;33;19970;-96
2022/04/17 05:59:03;;;;;;;;;;;;;;;9.61;59.73;100645.47;4345197;33;19992;-96
2022/04/17 06:01:29;;;;;;;;;;;;;;;9.38;59.71;100657.91;4345717;33;19978;-94
2022/04/17 06:03:54;;;;;;;;;;;;;;;9.06;59.70;100650.53;4332628;33;19952;-96
2022/04/17 06:06:21;;;;;;;;;;;;;;;9.18;59.70;100658.16;4332438;32;19995;-96
2022/04/17 06:08:47;;;;;;;;;;;;;;;9.19;59.71;100649.50;4344237;33;20008;-96
2022/04/17 06:11:15;;;;;;;;;;;;;;;9.38;59.72;100638.00;4332664;33;19978;-96
2022/04/17 06:13:43;;;;;;;;;;;;;;;9.18;59.70;100647.78;4344789;33;20079;-95
2022/04/17 06:16:12;;;;;;;;;;;;;;;9.37;59.72;100659.66;4331070;33;20081;-96
2022/04/17 06:18:40;;;;;;;;;;;;;;;9.32;59.71;100638.09;4344759;33;19963;-94
2022/04/17 06:21:17;;;;;;;;;;;;;;;9.39;59.71;100690.81;4348244;33;20014;-96
2022/04/17 06:26:39;;;;;;;;;;;;;;;9.45;59.72;100655.22;4486409;27;19956;-96
2022/04/17 06:29:09;;;;;;;;;;;;;;;9.72;59.74;100651.41;4337917;33;19995;-96
2022/04/17 06:31:34;;;;;;;;;;;;;;;9.89;59.75;100660.69;4309120;33;20384;-96
2022/04/17 06:34:01;;;;;;;;;;;;;;;10.13;59.76;100635.16;4311251;33;20739;-96
2022/04/17 06:36:29;;;;;;;;;;;;;;;10.19;59.77;100648.97;4329754;33;19997;-96
2022/04/17 06:38:59;;;;;;;;;;;;;;;10.22;59.77;100654.16;4328749;33;20016;-95
2022/04/17 06:41:35;;;;;;;;;;;;;;;10.29;59.77;100679.19;4325347;33;19992;-96
2022/04/17 06:44:03;;;;;;;;;;;;;;;10.00;59.75;100648.41;4327263;33;19971;-95
2022/04/17 06:46:54;;;;;;;;;;;;;;;9.92;59.75;100648.50;4324688;33;19964;-96
2022/04/17 06:49:20;;;;;;;;;;;;;;;10.11;59.77;100647.34;4347873;27;19995;-96
2022/04/17 06:52:03;;;;;;;;;;;;;;;10.28;59.77;100654.91;4357084;32;20010;-96
2022/04/17 06:54:31;;;;;;;;;;;;;;;10.09;59.76;100659.50;4355685;33;19979;-96
2022/04/17 06:57:01;;;;;;;;;;;;;;;10.05;59.75;100657.00;4342222;33;19955;-95
2022/04/17 06:59:27;;;;;;;;;;;;;;;10.33;59.78;100641.81;4328553;33;20009;-95
2022/04/17 07:01:58;;;;;;;;;;;;;;;10.53;59.79;100657.97;4327173;33;20027;-96
2022/04/17 07:04:24;;;;;;;;;;;;;;;10.48;59.78;100657.19;4351297;33;20004;-96
2022/04/17 07:06:49;;;;;;;;;;;;;;;10.74;59.79;100651.50;4327838;33;19980;-91
2022/04/17 07:09:15;;;;;;;;;;;;;;;10.77;59.80;100649.72;4327110;33;20325;-95
2022/04/17 07:11:40;;;;;;;;;;;;;;;10.73;59.79;100645.44;4325281;33;20034;-94
2022/04/17 07:14:06;;;;;;;;;;;;;;;10.92;59.81;100642.50;4325682;33;20023;-96
2022/04/17 07:16:32;;;;;;;;;;;;;;;10.93;59.80;100639.88;4326149;33;19972;-96
2022/04/17 07:19:03;;;;;;;;;;;;;;;11.04;59.81;100635.28;4330014;33;19964;-94
2022/04/17 07:21:29;;;;;;;;;;;;;;;11.21;59.82;100640.19;4327721;33;19982;-95
2022/04/17 07:23:55;;;;;;;;;;;;;;;11.31;59.83;100644.31;4328439;33;19988;-96
2022/04/17 07:26:30;;;;;;;;;;;;;;;11.35;59.83;100639.88;4330675;33;19983;-96
2022/04/17 07:28:55;;;;;;;;;;;;;;;11.17;59.82;100646.34;4346277;33;20000;-96
2022/04/17 07:31:23;;;;;;;;;;;;;;;11.20;59.82;100632.41;4341302;33;20310;-96
2022/04/17 07:33:52;;;;;;;;;;;;;;;11.30;59.83;100644.34;4341990;33;19988;-96
2022/04/17 07:36:18;;;;;;;;;;;;;;;11.26;59.82;100645.28;4342966;33;19970;-94
2022/04/17 07:38:43;;;;;;;;;;;;;;;11.23;59.82;100650.56;4338840;33;20281;-94
2022/04/17 07:41:19;;;;;;;;;;;;;;;11.14;59.82;100645.56;4339462;33;19991;-93
2022/04/17 07:43:56;;;;;;;;;;;;;;;11.08;59.82;100639.56;4343587;33;19969;-95
2022/04/17 07:46:22;;;;;;;;;;;;;;;11.07;59.81;100639.59;4344722;33;20015;-96
2022/04/17 07:48:47;;;;;;;;;;;;;;;10.76;59.79;100641.94;4340999;33;20245;-94
2022/04/17 07:51:13;;;;;;;;;;;;;;;10.52;59.78;100643.22;4344078;33;19987;-96
2022/04/17 07:53:38;;;;;;;;;;;;;;;10.48;59.78;100648.53;4342234;33;20258;-94
2022/04/17 07:56:14;;;;;;;;;;;;;;;;;;;;;
2022/04/17 07:58:39;;;;;;;;;;;;;;;10.83;59.79;100633.09;4344793;33;36179;-91
2022/04/17 08:01:11;;;;;;;;;;;;;;;10.89;59.80;100633.00;4399787;27;19959;-96
2022/04/17 08:06:09;;;;;;;;;;;;;;;11.17;59.82;100622.03;4355473;33;20021;-94
2022/04/17 08:08:35;;;;;;;;;;;;;;;11.32;59.83;100626.91;4341174;33;19964;-96
2022/04/17 08:11:00;;;;;;;;;;;;;;;11.29;59.83;100617.41;4340398;33;19995;-96
2022/04/17 08:13:25;;;;;;;;;;;;;;;11.34;59.83;100626.00;4339703;33;20003;-95
2022/04/17 08:15:50;;;;;;;;;;;;;;;11.26;59.82;100625.31;4337679;33;19983;-90
2022/04/17 08:18:16;;;;;;;;;;;;;;;11.41;59.83;100620.66;4338217;33;20007;-96
2022/04/17 08:20:41;;;;;;;;;;;;;;;11.55;59.84;100616.00;4337975;33;19995;-92
2022/04/17 08:23:06;;;;;;;;;;;;;;;11.46;59.84;100613.59;4336903;33;19987;-92
2022/04/17 08:25:33;;;;;;;;;;;;;;;11.21;59.82;100626.28;4336667;32;20002;-94
2022/04/17 08:27:58;;;;;;;;;;;;;;;11.35;59.83;100613.81;4336786;33;19956;-95
2022/04/17 08:30:27;;;;;;;;;;;;;;;11.40;59.83;100603.31;4324899;33;20349;-96
2022/04/17 08:32:52;;;;;;;;;;;;;;;11.68;59.85;100594.84;4325535;33;20038;-94
2022/04/17 08:35:17;;;;;;;;;;;;;;;11.90;59.87;100594.38;4324314;33;20301;-95
2022/04/17 08:37:43;;;;;;;;;;;;;;;11.94;59.86;100586.41;4326234;33;20018;-96
2022/04/17 08:40:09;;;;;;;;;;;;;;;12.04;59.86;100596.63;4328765;33;20377;-93
2022/04/17 08:42:34;;;;;;;;;;;;;;;12.30;59.89;100607.25;4325710;33;19998;-95
2022/04/17 08:44:59;;;;;;;;;;;;;;;12.21;59.88;100594.47;4325945;33;19983;-94
2022/04/17 08:47:25;;;;;;;;;;;;;;;12.17;59.87;100592.81;4325183;33;20365;-94
2022/04/17 08:49:51;;;;;;;;;;;;;;;12.13;59.87;100591.19;4326978;33;19999;-95
2022/04/17 08:52:23;;;;;;;;;;;;;;;11.91;59.86;100576.06;4327623;33;19983;-96
2022/04/17 08:55:06;;;;;;;;;;;;;;;12.24;59.88;100578.72;4360083;32;19952;-96
2022/04/17 08:57:31;;;;;;;;;;;;;;;12.58;59.90;100565.66;4340162;33;20026;-94
2022/04/17 08:59:56;;;;;;;;;;;;;;;12.84;59.91;100572.75;4327146;33;20003;-96
2022/04/17 09:02:22;;;;;;;;;;;;;;;12.76;59.91;100577.31;4322833;33;20294;-95
2022/04/17 09:04:47;;;;;;;;;;;;;;;12.45;59.89;100567.72;4334818;33;19980;-95
2022/04/17 09:07:13;;;;;;;;;;;;;;;12.24;59.88;100557.84;4335455;33;20095;-95
2022/04/17 09:09:51;;;;;;;;;;;;;;;12.26;59.87;100561.25;4335384;33;19991;-91
2022/04/17 09:12:26;;;;;;;;;;;;;;;12.39;59.88;100560.06;4311617;33;19976;-95
2022/04/17 09:14:51;;;;;;;;;;;;;;;12.73;59.91;100559.13;4337616;33;19984;-96
2022/04/17 09:17:16;;;;;;;;;;;;;;;12.84;59.91;100551.88;4339412;33;20274;-95
2022/04/17 09:19:42;;;;;;;;;;;;;;;13.14;59.93;100558.81;4324614;33;19995;-95
2022/04/17 09:22:22;;;;;;;;;;;;;;;13.12;59.93;100542.31;4327958;33;19999;-96
2022/04/17 09:24:50;;;;;;;;;;;;;;;13.14;59.93;100548.34;4338047;33;20006;-96
2022/04/17 09:27:15;;;;;;;;;;;;;;;13.14;59.94;100543.13;4337922;33;20358;-94
2022/04/17 09:29:41;;;;;;;;;;;;;;;13.10;59.92;100525.81;4338591;33;20125;-96
2022/04/17 09:32:07;;;;;;;;;;;;;;;13.14;59.93;100543.13;4337593;33;19999;-96
2022/04/17 09:34:42;;;;;;;;;;;;;;;13.34;59.94;100526.00;4326569;33;19964;-96
2022/04/17 09:37:14;;;;;;;;;;;;;;;13.61;59.95;100519.03;4316588;33;20046;-96
2022/04/17 09:39:40;;;;;;;;;;;;;;;13.78;59.96;100504.53;4340168;33;19995;-96
2022/04/17 09:42:07;;;;;;;;;;;;;;;13.95;59.98;100510.94;4339460;33;19995;-96
2022/04/17 09:44:36;;;;;;;;;;;;;;;14.08;59.98;100504.38;4341984;33;19956;-96
2022/04/17 09:47:12;;;;;;;;;;;;;;;14.10;59.99;100503.41;4316516;33;20004;-95
2022/04/17 09:49:53;;;;;;;;;;;;;;;14.20;59.99;100498.75;4341915;33;19991;-96
2022/04/17 09:52:39;;;;;;;;;;;;;;;14.37;59.99;100503.38;4344231;33;19956;-96
2022/04/17 09:55:05;;;;;;;;;;;;;;;14.24;60.00;100508.19;4342113;33;19956;-96
2022/04/17 09:57:30;;;;;;;;;;;;;;;14.21;59.99;100495.22;4342337;33;20019;-96
2022/04/17 09:59:56;;;;;;;;;;;;;;;14.28;59.99;100494.09;4343085;32;19992;-96
2022/04/17 10:02:22;;;;;;;;;;;;;;;14.44;60.00;100483.94;4329783;33;20330;-96
2022/04/17 10:04:51;;;;;;;;;;;;;;;14.48;60.01;100475.06;4342282;33;19979;-96
2022/04/17 10:07:19;;;;;;;;;;;;;;;14.55;60.02;100480.94;4339791;33;20049;-96
2022/04/17 10:09:45;;;;;;;;;;;;;;;14.06;59.98;100483.50;4329815;33;20000;-96
2022/04/17 10:12:19;;;;;;;;;;;;;;;14.14;59.98;100478.84;4330808;33;19976;-96
2022/04/17 10:14:48;;;;;;;;;;;;;;;14.29;59.99;100480.06;4330565;33;19980;-95
2022/04/17 10:17:18;;;;;;;;;;;;;;;14.33;60.00;100476.44;4334350;33;19968;-96
2022/04/17 10:19:44;;;;;;;;;;;;;;;14.37;59.99;100478.03;4305576;33;20033;-96
2022/04/17 10:22:09;;;;;;;;;;;;;;;14.57;60.01;100464.25;4308038;33;20000;-93
2022/04/17 10:24:35;;;;;;;;;;;;;;;14.57;60.01;100458.16;4397113;27;19988;-95
2022/04/17 10:27:01;;;;;;;;;;;;;;;14.57;60.01;100450.28;4325993;33;20040;-96
2022/04/17 10:29:50;;;;;;;;;;;;;;;14.67;60.02;100462.16;4339607;33;20408;-95
2022/04/17 10:32:19;;;;;;;;;;;;;;;14.45;60.00;100450.75;4342433;33;19987;-95
2022/04/17 10:34:51;;;;;;;;;;;;;;;14.35;60.00;100447.56;4340638;33;19995;-94
2022/04/17 10:37:32;;;;;;;;;;;;;;;14.39;60.00;100436.91;4343604;33;19968;-96
2022/04/17 10:39:58;;;;;;;;;;;;;;;14.32;60.00;100443.28;4345337;32;19998;-95
2022/04/17 10:42:34;;;;;;;;;;;;;;;14.50;60.01;100428.72;4343797;32;20161;-95
2022/04/17 10:45:03;;;;;;;;;;;;;;;14.60;60.01;100431.81;4346148;32;20002;-93
2022/04/17 10:47:29;;;;;;;;;;;;;;;14.33;60.00;100447.63;4346173;32;20007;-95
2022/04/17 10:50:00;;;;;;;;;;;;;;;14.21;59.99;100421.91;4349425;32;19987;-96
2022/04/17 10:52:32;;;;;;;;;;;;;;;14.52;60.00;100424.25;4372023;32;19971;-96
2022/04/17 10:55:07;;;;;;;;;;;;;;;14.56;60.01;100430.25;4344058;32;20007;-95
2022/04/17 10:57:41;;;;;;;;;;;;;;;14.59;60.01;100409.16;4341818;32;20026;-96
2022/04/17 11:00:27;;;;;;;;;;;;;;;14.46;60.00;100411.41;4356949;32;19999;-96
2022/04/17 11:02:52;;;;;;;;;;;;;;;14.72;60.02;100397.31;4356368;32;19983;-94
2022/04/17 11:08:29;;;;;;;;;;;;;;;14.93;60.03;100401.72;4370802;32;20007;-96
2022/04/17 11:11:02;;;;;;;;;;;;;;;14.91;60.03;100405.31;4356775;32;19998;-96
2022/04/17 11:13:37;;;;;;;;;;;;;;;14.90;60.02;100406.19;4358790;32;20071;-96
2022/04/17 11:16:06;;;;;;;;;;;;;;;14.85;60.03;100388.03;4361026;32;19959;-95
2022/04/17 11:18:33;;;;;;;;;;;;;;;15.18;60.04;100383.22;4359167;32;19989;-94
2022/04/17 11:24:00;;;;;;;;;;;;;;;15.09;60.04;100383.59;4344746;33;19988;-96
2022/04/17 11:26:44;;;;;;;;;;;;;;;15.32;60.06;100369.53;4341127;33;19991;-95
2022/04/17 11:29:12;;;;;;;;;;;;;;;15.09;60.04;100383.59;4336760;33;20004;-95
2022/04/17 11:31:37;;;;;;;;;;;;;;;14.77;60.02;100376.16;4312708;33;19992;-94
2022/04/17 11:34:03;;;;;;;;;;;;;;;14.65;60.02;100398.44;4314749;33;19984;-96
2022/04/17 11:36:28;;;;;;;;;;;;;;;14.69;60.01;100377.31;4314800;33;20014;-96
2022/04/17 11:38:54;;;;;;;;;;;;;;;14.88;60.03;100376.56;4325748;33;19971;-96
2022/04/17 11:41:20;;;;;;;;;;;;;;;14.72;60.02;100363.25;4311328;33;19996;-96
2022/04/17 11:44:01;;;;;;;;;;;;;;;14.77;60.03;100366.53;4312788;33;19964;-96
2022/04/17 11:46:27;;;;;;;;;;;;;;;15.09;60.04;100359.13;4315650;33;19976;-95
2022/04/17 11:48:55;;;;;;;;;;;;;;;15.26;60.05;100364.56;4327159;33;19990;-94
2022/04/17 11:51:21;;;;;;;;;;;;;;;15.23;60.05;100356.81;4313325;33;20010;-95
2022/04/17 11:53:46;;;;;;;;;;;;;;;15.23;60.05;100359.44;4312210;33;19976;-94
2022/04/17 11:56:11;;;;;;;;;;;;;;;14.91;60.03;100366.00;4306785;33;19998;-90
2022/04/17 11:58:36;;;;;;;;;;;;;;;14.39;60.00;100376.69;4298515;33;20004;-91
2022/04/17 12:01:05;;;;;;;;;;;;;;;14.32;60.00;100382.22;4308617;33;20580;-96
2022/04/17 12:03:34;;;;;;;;;;;;;;;14.47;60.01;100360.72;4320179;33;19980;-95
2022/04/17 12:06:01;;;;;;;;;;;;;;;14.61;60.01;100347.94;4323220;33;19976;-95
2022/04/17 12:08:31;;;;;;;;;;;;;;;14.98;60.03;100347.34;4310649;33;20343;-93
2022/04/17 12:10:57;;;;;;;;;;;;;;;15.16;60.05;100347.50;4312007;33;20369;-95
2022/04/17 12:13:24;;;;;;;;;;;;;;;14.85;60.02;100358.34;4310097;33;19970;-94
2022/04/17 12:15:57;;;;;;;;;;;;;;;14.92;60.04;100337.09;4310253;33;20028;-96
2022/04/17 12:18:22;;;;;;;;;;;;;;;15.10;60.04;100332.84;4323798;33;20118;-94
2022/04/17 12:21:02;;;;;;;;;;;;;;;15.33;60.06;100329.28;4311979;33;19996;-96
2022/04/17 12:23:29;;;;;;;;;;;;;;;15.54;60.07;100336.22;4322932;33;19984;-92
2022/04/17 12:25:55;;;;;;;;;;;;;;;15.58;60.06;100337.84;4319286;33;19975;-93
2022/04/17 12:28:20;;;;;;;;;;;;;;;15.52;60.06;100343.31;4306954;33;20345;-91
2022/04/17 12:30:45;;;;;;;;;;;;;;;15.25;60.05;100336.63;4306430;33;20250;-91
2022/04/17 12:33:23;;;;;;;;;;;;;;;15.00;60.03;100342.03;4305607;33;20589;-91
2022/04/17 12:36:08;;;;;;;;;;;;;;;14.65;60.02;100335.56;4305902;33;19980;-90
2022/04/17 12:38:34;;;;;;;;;;;;;;;14.67;60.02;100341.63;4281522;33;821251;-90
2022/04/17 12:41:26;;;;;;;;;;;;;;;14.53;60.01;100325.56;4323276;33;20000;-95
2022/04/17 12:43:55;;;;;;;;;;;;;;;14.80;60.03;100321.84;4319818;33;20002;-93
2022/04/17 12:49:32;;;;;;;;;;;;;;;15.32;60.06;100306.59;4321777;33;20035;-94
2022/04/17 12:51:59;;;;;;;;;;;;;;;15.13;60.04;100303.88;4307298;33;20048;-88
2022/04/17 12:54:34;;;;;;;;;;;;;;;14.98;60.03;100300.16;4305766;33;20000;-92
2022/04/17 12:57:37;;;;;;;;;;;;;;;14.76;60.02;100312.41;4311242;33;19976;-96
2022/04/17 13:00:26;;;;;;;;;;;;;;;14.64;60.02;100292.78;4331876;33;20000;-96
2022/04/17 13:03:23;;;;;;;;;;;;;;;14.93;60.04;100296.88;4421092;27;20039;-96
2022/04/17 13:05:59;;;;;;;;;;;;;;;14.90;60.03;100291.72;4435314;27;20064;-96
2022/04/17 13:08:24;;;;;;;;;;;;;;;15.13;60.04;100272.41;4356296;33;20018;-94
2022/04/17 13:10:49;;;;;;;;;;;;;;;15.49;60.06;100279.62;4339978;33;19991;-95
2022/04/17 13:13:16;;;;;;;;;;;;;;;14.93;60.04;100289.00;4340551;33;19994;-96
2022/04/17 13:15:41;;;;;;;;;;;;;;;14.76;60.02;100280.97;4339014;33;19980;-92
2022/04/17 13:18:06;;;;;;;;;;;;;;;14.47;60.00;100283.91;4343031;33;19987;-96